Time;durP1;ratioP1;P1;durP2;ratioP2;P2;SDS_P1;SDS_P2;PMS_P1;PMS_P2;Temp;Humidity;BMP_temperature;BMP_pressure;BME280_temperature;BME280_humidity;BME280_pressure;Samples;Min_cycle;Max_cycle;Signal;HPM_P1;HPM_P2
2022/04/16 00:01:38;;;;;;;1.00;0.90;;;10.50;65.20;;;;;;5027634;28;20189;-73
2022/04/16 00:04:04;;;;;;;1.77;1.30;;;10.50;65.40;;;;;;5006000;28;20424;-74
2022/04/16 00:06:29;;;;;;;1.85;1.20;;;10.50;65.40;;;;;;5030090;28;20600;-73
2022/04/16 00:08:55;;;;;;;1.60;1.10;;;10.50;65.40;;;;;;5016353;28;20119;-72
2022/04/16 00:11:20;;;;;;;1.70;1.30;;;10.50;65.60;;;;;;5027370;28;20044;-73
2022/04/16 00:13:49;;;;;;;2.28;1.20;;;10.50;65.60;;;;;;5044271;28;20033;-73
2022/04/16 00:16:17;;;;;;;1.52;1.33;;;10.50;65.70;;;;;;5035715;28;20040;-73
2022/04/16 00:18:43;;;;;;;2.55;1.50;;;10.60;65.90;;;;;;5042665;28;20117;-73
2022/04/16 00:21:08;;;;;;;1.52;1.40;;;10.60;66.00;;;;;;5041317;28;20044;-73
2022/04/16 00:23:34;;;;;;;3.08;1.25;;;10.50;66.00;;;;;;5037647;28;20037;-73
2022/04/16 00:26:02;;;;;;;1.10;1.00;;;10.60;66.20;;;;;;5058409;28;20043;-73
2022/04/16 00:28:28;;;;;;;1.55;1.27;;;10.60;66.20;;;;;;5029068;28;20056;-72
2022/04/16 00:30:56;;;;;;;1.88;1.52;;;10.60;66.20;;;;;;5002483;28;20812;-73
2022/04/16 00:33:22;;;;;;;1.10;0.93;;;10.60;66.40;;;;;;5041585;28;20075;-73
2022/04/16 00:35:48;;;;;;;2.50;1.50;;;10.60;66.20;;;;;;5028285;28;20021;-73
2022/04/16 00:38:14;;;;;;;1.48;1.10;;;10.70;66.40;;;;;;5026553;28;20039;-73
2022/04/16 00:40:40;;;;;;;2.30;1.40;;;10.70;66.50;;;;;;5032780;28;20583;-73
2022/04/16 00:43:06;;;;;;;2.40;1.67;;;10.70;66.50;;;;;;4990645;28;20113;-73
2022/04/16 00:45:32;;;;;;;1.88;1.67;;;10.70;66.70;;;;;;5031377;28;20114;-74
2022/04/16 00:47:59;;;;;;;2.40;1.40;;;10.70;66.70;;;;;;5051830;28;20029;-74
2022/04/16 00:50:24;;;;;;;3.45;1.98;;;10.70;66.70;;;;;;5032377;28;20033;-74
2022/04/16 00:52:50;;;;;;;2.15;1.92;;;10.70;67.60;;;;;;5035483;28;20424;-73
2022/04/16 00:55:16;;;;;;;2.10;1.90;;;10.70;66.80;;;;;;5005416;28;20087;-73
2022/04/16 00:57:42;;;;;;;2.80;1.90;;;10.70;66.90;;;;;;4993094;28;20052;-73
2022/04/16 01:00:09;;;;;;;4.88;3.10;;;10.80;67.10;;;;;;5006722;28;20037;-73
2022/04/16 01:02:35;;;;;;;2.92;2.22;;;10.70;67.20;;;;;;5029139;28;20045;-73
2022/04/16 01:05:03;;;;;;;3.13;2.03;;;10.80;68.10;;;;;;5004441;28;20052;-74
2022/04/16 01:07:28;;;;;;;4.20;1.90;;;10.70;67.20;;;;;;4969148;28;20037;-73
2022/04/16 01:09:54;;;;;;;3.47;2.70;;;10.70;67.20;;;;;;5004010;28;20113;-73
2022/04/16 01:12:20;;;;;;;3.35;2.42;;;10.80;67.30;;;;;;5015614;28;20458;-73
2022/04/16 01:14:45;;;;;;;2.65;2.00;;;10.80;67.30;;;;;;5045878;28;20036;-74
2022/04/16 01:17:12;;;;;;;3.83;2.60;;;10.80;67.40;;;;;;5043958;28;20041;-74
2022/04/16 01:19:38;;;;;;;4.68;2.60;;;10.80;67.50;;;;;;5048780;28;20071;-73
2022/04/16 01:22:05;;;;;;;6.38;2.47;;;10.80;67.50;;;;;;5000413;28;20086;-73
2022/04/16 01:24:31;;;;;;;3.63;2.50;;;10.80;67.50;;;;;;5010793;28;20044;-76
2022/04/16 01:26:58;;;;;;;8.48;2.80;;;10.80;67.60;;;;;;5016390;28;20037;-74
2022/04/16 01:29:23;;;;;;;4.10;2.65;;;10.80;67.70;;;;;;5007307;28;20041;-74
2022/04/16 01:31:49;;;;;;;3.42;2.45;;;10.80;67.80;;;;;;5025818;28;20051;-73
2022/04/16 01:34:17;;;;;;;3.58;2.35;;;10.80;67.80;;;;;;5012829;28;20979;-74
2022/04/16 01:36:43;;;;;;;6.53;3.03;;;10.80;67.80;;;;;;5028953;28;20057;-74
2022/04/16 01:39:08;;;;;;;4.25;2.90;;;10.80;67.90;;;;;;5010721;28;20622;-74
2022/04/16 01:41:35;;;;;;;2.78;2.05;;;10.80;67.90;;;;;;5019608;28;20075;-74
2022/04/16 01:44:00;;;;;;;5.55;2.53;;;10.80;67.90;;;;;;5031662;28;20587;-74
2022/04/16 01:46:27;;;;;;;4.07;2.53;;;10.80;67.80;;;;;;5057568;28;20044;-74
2022/04/16 01:48:53;;;;;;;3.65;2.70;;;10.80;67.80;;;;;;5041718;28;20029;-74
2022/04/16 01:51:20;;;;;;;3.63;2.83;;;10.80;67.80;;;;;;5047487;28;20029;-73
2022/04/16 01:53:45;;;;;;;4.25;2.97;;;10.80;67.90;;;;;;5005894;28;20334;-74
2022/04/16 01:56:11;;;;;;;3.85;2.38;;;10.90;68.00;;;;;;5041934;28;20123;-73
2022/04/16 01:58:38;;;;;;;3.67;2.85;;;10.80;68.00;;;;;;5043253;28;20063;-75
2022/04/16 02:01:05;;;;;;;3.70;2.63;;;10.90;68.00;;;;;;5008691;28;20033;-74
2022/04/16 02:03:31;;;;;;;4.30;2.40;;;10.90;68.00;;;;;;5018033;28;20032;-75
2022/04/16 02:05:56;;;;;;;4.05;3.15;;;10.90;68.00;;;;;;5017572;28;20025;-74
2022/04/16 02:08:22;;;;;;;3.60;2.35;;;10.90;68.10;;;;;;5003968;28;20021;-74
2022/04/16 02:10:47;;;;;;;6.75;2.90;;;10.90;68.10;;;;;;5006142;28;20032;-74
2022/04/16 02:13:13;;;;;;;3.67;2.65;;;10.90;68.10;;;;;;5066817;28;20017;-74
2022/04/16 02:15:38;;;;;;;5.00;3.08;;;10.90;68.00;;;;;;5015291;28;20022;-73
2022/04/16 02:18:04;;;;;;;5.60;2.35;;;10.90;68.20;;;;;;5002369;28;20033;-74
2022/04/16 02:20:30;;;;;;;4.78;2.47;;;10.90;68.20;;;;;;5066253;28;20029;-74
2022/04/16 02:22:55;;;;;;;5.72;2.63;;;10.90;68.20;;;;;;5024093;28;20035;-74
2022/04/16 02:25:24;;;;;;;5.10;2.85;;;10.90;68.20;;;;;;5032111;28;20490;-75
2022/04/16 02:27:49;;;;;;;3.28;2.13;;;10.90;68.20;;;;;;5029994;28;20033;-73
2022/04/16 02:30:15;;;;;;;4.93;2.20;;;10.90;68.20;;;;;;5002704;28;20102;-74
2022/04/16 02:32:43;;;;;;;4.35;2.50;;;10.90;68.20;;;;;;5044649;28;20026;-75
2022/04/16 02:35:09;;;;;;;6.80;2.80;;;10.90;68.20;;;;;;5045534;28;20440;-74
2022/04/16 02:37:35;;;;;;;4.88;2.60;;;10.90;68.20;;;;;;4990766;28;20604;-74
2022/04/16 02:40:01;;;;;;;3.22;2.22;;;10.90;68.20;;;;;;5037585;28;20033;-74
2022/04/16 02:42:26;;;;;;;4.38;2.67;;;10.90;69.00;;;;;;5033666;28;22866;-74
2022/04/16 02:47:36;;;;;;;4.13;2.53;;;10.90;68.30;;;;;;5038846;28;20036;-74
2022/04/16 02:50:02;;;;;;;4.20;2.17;;;10.90;68.30;;;;;;5033574;28;20033;-75
2022/04/16 02:52:31;;;;;;;4.68;2.40;;;10.90;68.20;;;;;;5027583;28;20033;-74
2022/04/16 02:54:57;;;;;;;4.88;2.67;;;10.90;68.30;;;;;;5012542;28;20159;-74
2022/04/16 02:57:22;;;;;;;5.38;3.28;;;10.90;68.20;;;;;;5005202;28;20033;-74
2022/04/16 02:59:48;;;;;;;4.05;2.65;;;10.90;68.20;;;;;;5015454;28;20051;-74
2022/04/16 03:02:13;;;;;;;4.25;2.80;;;10.90;68.20;;;;;;5038516;28;20116;-73
2022/04/16 03:04:39;;;;;;;5.55;3.33;;;10.80;68.20;;;;;;5049063;28;20092;-74
2022/04/16 03:07:05;;;;;;;6.32;3.20;;;10.80;68.20;;;;;;5029221;28;20037;-73
2022/04/16 03:09:30;;;;;;;4.63;2.97;;;10.80;68.20;;;;;;5025843;28;20083;-74
2022/04/16 03:11:56;;;;;;;4.10;3.17;;;10.80;68.20;;;;;;5013122;28;20490;-75
2022/04/16 03:19:50;;;;;;;6.05;3.38;;;10.80;68.10;;;;;;5031920;28;20095;-74
2022/04/16 03:22:16;;;;;;;5.07;3.63;;;10.80;68.00;;;;;;5017809;28;20045;-74
2022/04/16 03:24:41;;;;;;;5.95;3.60;;;10.70;67.90;;;;;;5024984;28;20068;-74
2022/04/16 03:27:07;;;;;;;4.45;3.55;;;10.70;68.00;;;;;;5027431;28;20068;-74
2022/04/16 03:29:34;;;;;;;4.53;3.20;;;10.70;68.10;;;;;;5068282;28;20064;-74
2022/04/16 03:31:59;;;;;;;5.32;3.35;;;10.70;68.10;;;;;;5021665;28;20067;-73
2022/04/16 03:34:25;;;;;;;6.03;3.50;;;10.60;68.10;;;;;;5024763;28;20121;-74
2022/04/16 03:36:51;;;;;;;4.20;3.38;;;10.60;68.10;;;;;;5008253;28;20046;-74
2022/04/16 03:39:16;;;;;;;5.10;3.78;;;10.60;68.10;;;;;;4998927;28;20033;-74
2022/04/16 03:41:42;;;;;;;5.43;3.53;;;10.60;68.10;;;;;;5013851;28;20033;-74
2022/04/16 03:44:07;;;;;;;4.85;3.47;;;10.60;68.10;;;;;;5017392;28;20718;-75
2022/04/16 03:46:33;;;;;;;5.32;2.97;;;10.60;68.10;;;;;;5052335;28;20042;-74
2022/04/16 03:48:59;;;;;;;4.47;3.45;;;10.60;68.90;;;;;;5022965;28;20144;-74
2022/04/16 03:51:26;;;;;;;3.75;2.63;;;10.60;68.20;;;;;;5023056;28;20029;-74
2022/04/16 03:53:52;;;;;;;4.30;3.38;;;10.60;68.20;;;;;;5040545;28;20067;-75
2022/04/16 04:01:46;;;;;;;4.18;3.10;;;10.60;68.10;;;;;;5027751;28;20114;-74
2022/04/16 04:04:12;;;;;;;4.28;3.08;;;10.60;68.90;;;;;;5019072;28;20501;-74
2022/04/16 04:06:38;;;;;;;5.93;3.50;;;10.60;68.10;;;;;;5014080;28;20038;-74
2022/04/16 04:09:04;;;;;;;5.28;3.53;;;10.60;68.10;;;;;;5017490;28;20029;-75
2022/04/16 04:11:29;;;;;;;4.63;3.60;;;10.60;68.10;;;;;;5016315;28;20034;-74
2022/04/16 04:13:55;;;;;;;5.03;3.50;;;10.60;68.10;;;;;;5035605;28;20038;-73
2022/04/16 04:16:22;;;;;;;4.88;3.13;;;10.60;68.20;;;;;;4998325;28;20034;-74
2022/04/16 04:18:48;;;;;;;6.03;4.00;;;10.60;68.10;;;;;;5048013;28;20052;-74
2022/04/16 04:21:13;;;;;;;7.75;3.92;;;10.60;68.10;;;;;;5029766;28;20037;-73
2022/04/16 04:23:39;;;;;;;6.88;3.92;;;10.60;68.30;;;;;;5041280;28;20072;-74
2022/04/16 04:26:04;;;;;;;4.40;3.58;;;10.50;68.20;;;;;;5014431;28;20087;-74
2022/04/16 04:28:30;;;;;;;5.53;3.53;;;10.50;68.30;;;;;;5045775;28;20030;-73
2022/04/16 04:30:55;;;;;;;6.65;4.07;;;10.50;68.30;;;;;;4994892;28;20025;-74
2022/04/16 04:33:21;;;;;;;4.93;3.65;;;10.50;68.30;;;;;;5014665;28;20029;-74
2022/04/16 04:35:50;;;;;;;5.97;4.05;;;10.50;68.40;;;;;;5024658;28;20099;-74
2022/04/16 04:38:15;;;;;;;5.35;4.20;;;10.40;68.40;;;;;;5040354;28;20048;-74
2022/04/16 04:40:41;;;;;;;5.15;3.83;;;10.40;68.40;;;;;;5034031;28;20037;-74
2022/04/16 04:43:06;;;;;;;5.88;3.97;;;10.40;68.40;;;;;;5051289;28;20238;-73
2022/04/16 04:45:32;;;;;;;5.35;4.20;;;10.40;68.50;;;;;;5047590;28;20120;-74
2022/04/16 04:47:58;;;;;;;4.78;3.20;;;10.40;68.40;;;;;;5056353;28;20112;-75
2022/04/16 04:50:23;;;;;;;6.10;4.43;;;10.40;68.40;;;;;;5047956;28;20041;-74
2022/04/16 04:52:49;;;;;;;6.30;4.28;;;10.40;68.40;;;;;;5026562;28;20033;-74
2022/04/16 04:55:14;;;;;;;5.20;3.78;;;10.40;68.40;;;;;;5010968;28;20049;-74
2022/04/16 04:57:40;;;;;;;8.73;4.40;;;10.40;68.40;;;;;;5037164;28;20036;-74
2022/04/16 05:00:07;;;;;;;4.65;3.35;;;10.40;68.40;;;;;;5016738;28;20032;-74
2022/04/16 05:02:43;;;;;;;4.10;3.15;;;10.40;68.40;;;;;;5027972;28;20590;-74
2022/04/16 05:05:08;;;;;;;5.63;3.53;;;10.40;68.50;;;;;;5046630;28;20058;-75
2022/04/16 05:07:34;;;;;;;6.03;4.05;;;10.40;68.40;;;;;;5014389;28;20112;-76
2022/04/16 05:10:00;;;;;;;6.60;3.83;;;10.40;68.30;;;;;;4992913;28;20155;-71
2022/04/16 05:12:25;;;;;;;6.47;4.10;;;10.30;68.20;;;;;;5029553;28;20029;-74
2022/04/16 05:14:51;;;;;;;5.05;3.35;;;10.40;68.30;;;;;;5010817;28;20048;-75
2022/04/16 05:17:16;;;;;;;5.80;4.30;;;10.30;68.40;;;;;;5026831;28;20065;-74
2022/04/16 05:19:42;;;;;;;6.22;3.90;;;10.30;68.30;;;;;;4997183;28;20028;-74
2022/04/16 05:22:07;;;;;;;5.32;3.50;;;10.30;68.40;;;;;;5010654;28;20459;-74
2022/04/16 05:24:33;;;;;;;10.98;4.78;;;10.30;68.40;;;;;;5023096;28;20593;-74
2022/04/16 05:26:58;;;;;;;11.15;4.43;;;10.30;68.40;;;;;;5022850;28;20037;-75
2022/04/16 05:29:24;;;;;;;27.95;6.65;;;10.40;68.40;;;;;;4997787;28;20029;-74
2022/04/16 05:31:50;;;;;;;22.40;6.72;;;10.30;68.40;;;;;;5038288;28;20036;-75
2022/04/16 05:34:18;;;;;;;12.50;4.40;;;10.40;68.40;;;;;;5050681;28;20059;-75
2022/04/16 05:36:48;;;;;;;24.80;6.43;;;10.30;68.40;;;;;;5046655;28;20037;-75
2022/04/16 05:39:14;;;;;;;17.75;6.47;;;10.30;68.40;;;;;;5024594;28;20039;-74
2022/04/16 05:41:40;;;;;;;12.95;4.45;;;10.30;68.40;;;;;;5061333;28;20484;-74
2022/04/16 05:44:06;;;;;;;14.48;4.63;;;10.30;68.50;;;;;;5017419;28;20033;-74
2022/04/16 05:46:31;;;;;;;24.55;5.82;;;10.30;68.50;;;;;;5015700;28;20036;-76
2022/04/16 05:48:57;;;;;;;21.08;6.65;;;10.30;68.60;;;;;;5044704;28;20033;-75
2022/04/16 05:51:22;;;;;;;24.98;6.63;;;10.30;68.60;;;;;;5032642;28;20457;-74
2022/04/16 05:53:48;;;;;;;15.55;5.93;;;10.30;68.60;;;;;;5040733;28;20075;-74
2022/04/16 05:56:14;;;;;;;15.05;5.55;;;10.30;68.60;;;;;;5043147;28;20041;-74
2022/04/16 05:58:40;;;;;;;22.77;6.35;;;10.30;68.60;;;;;;5062165;28;20059;-73
2022/04/16 06:01:09;;;;;;;13.55;5.90;;;10.20;68.80;;;;;;5022946;28;20031;-74
2022/04/16 06:03:36;;;;;;;15.32;5.57;;;10.20;68.90;;;;;;5030688;28;20036;-75
2022/04/16 06:06:03;;;;;;;12.18;5.30;;;10.20;69.00;;;;;;5064340;28;20029;-74
2022/04/16 06:08:28;;;;;;;11.95;5.30;;;10.20;69.00;;;;;;5052145;28;20043;-74
2022/04/16 06:10:54;;;;;;;10.32;4.97;;;10.10;68.90;;;;;;5032022;28;20441;-74
2022/04/16 06:13:19;;;;;;;12.10;5.22;;;10.10;69.00;;;;;;5041218;28;20524;-73
2022/04/16 06:15:45;;;;;;;9.95;4.93;;;10.10;69.00;;;;;;5026302;28;20037;-73
2022/04/16 06:18:10;;;;;;;7.63;4.65;;;10.00;69.00;;;;;;5046081;28;20040;-74
2022/04/16 06:20:36;;;;;;;7.38;4.55;;;10.00;69.10;;;;;;5030641;28;20112;-74
2022/04/16 06:23:02;;;;;;;11.77;5.15;;;10.00;69.10;;;;;;5049183;28;20563;-74
2022/04/16 06:25:28;;;;;;;10.68;4.63;;;10.00;69.10;;;;;;4999456;28;20033;-74
2022/04/16 06:27:54;;;;;;;8.40;4.78;;;10.00;69.00;;;;;;5013085;28;20060;-74
2022/04/16 06:30:20;;;;;;;6.47;4.28;;;10.00;69.00;;;;;;5011003;28;20037;-75
2022/04/16 06:32:45;;;;;;;12.25;4.50;;;10.00;69.00;;;;;;5035332;28;20414;-75
2022/04/16 06:35:12;;;;;;;11.40;4.63;;;10.00;69.00;;;;;;5064656;28;20044;-75
2022/04/16 06:37:38;;;;;;;10.27;4.78;;;10.00;69.00;;;;;;5031074;28;20524;-75
2022/04/16 06:40:05;;;;;;;10.93;4.90;;;10.00;69.00;;;;;;5043492;28;20501;-75
2022/04/16 06:42:31;;;;;;;8.55;4.93;;;10.00;69.00;;;;;;5012176;28;20032;-74
2022/04/16 06:44:56;;;;;;;12.07;5.05;;;10.00;69.00;;;;;;5032044;28;20040;-75
2022/04/16 06:47:22;;;;;;;9.02;4.18;;;9.90;68.90;;;;;;5048289;28;20043;-74
2022/04/16 06:49:47;;;;;;;17.38;4.97;;;10.00;69.90;;;;;;5050591;28;20029;-74
2022/04/16 06:52:13;;;;;;;16.98;5.22;;;10.00;68.90;;;;;;5031409;28;20094;-75
2022/04/16 06:54:39;;;;;;;11.65;4.93;;;10.00;68.90;;;;;;5020785;28;20029;-74
2022/04/16 06:57:04;;;;;;;12.38;4.70;;;10.00;68.80;;;;;;5034503;28;20197;-74
2022/04/16 06:59:30;;;;;;;7.65;4.65;;;10.00;68.90;;;;;;5073241;28;20054;-74
2022/04/16 07:01:55;;;;;;;6.93;4.45;;;10.00;68.80;;;;;;5019601;28;20096;-75
2022/04/16 07:04:21;;;;;;;8.45;4.75;;;10.00;68.90;;;;;;5028434;28;20463;-74
2022/04/16 07:06:46;;;;;;;21.95;5.50;;;10.00;68.80;;;;;;5036602;28;20052;-74
2022/04/16 07:09:12;;;;;;;12.65;5.10;;;9.90;68.80;;;;;;5052395;28;20037;-74
2022/04/16 07:11:37;;;;;;;8.18;4.50;;;10.00;68.90;;;;;;5041179;28;20029;-74
2022/04/16 07:14:03;;;;;;;6.95;4.68;;;10.00;68.90;;;;;;5055139;28;20338;-74
2022/04/16 07:16:28;;;;;;;6.97;3.75;;;10.00;68.90;;;;;;5048077;28;20041;-74
2022/04/16 07:18:54;;;;;;;8.95;3.97;;;10.00;68.80;;;;;;5041827;28;20071;-74
2022/04/16 07:21:19;;;;;;;5.68;3.78;;;10.00;68.70;;;;;;5039802;28;20084;-75
2022/04/16 07:23:46;;;;;;;5.13;3.30;;;10.00;68.60;;;;;;5044230;28;20068;-75
2022/04/16 07:26:12;;;;;;;6.90;3.63;;;10.00;68.60;;;;;;5058608;28;20029;-75
2022/04/16 07:28:37;;;;;;;6.00;3.42;;;10.10;68.60;;;;;;5037944;28;20025;-76
2022/04/16 07:31:03;;;;;;;4.70;2.65;;;10.10;68.40;;;;;;5008041;28;20025;-77
2022/04/16 07:33:31;;;;;;;6.05;3.17;;;10.20;68.30;;;;;;5058536;28;20134;-75
2022/04/16 07:35:57;;;;;;;8.80;3.70;;;10.20;68.20;;;;;;5019710;28;20102;-76
2022/04/16 07:38:22;;;;;;;13.30;3.38;;;10.20;68.10;;;;;;5055388;28;20076;-75
2022/04/16 07:40:48;;;;;;;7.82;3.20;;;10.30;68.10;;;;;;5066225;28;20281;-75
2022/04/16 07:43:15;;;;;;;15.75;3.80;;;10.50;68.00;;;;;;5050120;28;20181;-76
2022/04/16 07:45:41;;;;;;;15.50;4.07;;;10.70;67.80;;;;;;5062226;28;20028;-75
2022/04/16 07:48:07;;;;;;;8.25;2.67;;;10.80;67.30;;;;;;5040886;28;20118;-75
2022/04/16 07:50:32;;;;;;;37.97;10.40;;;11.00;67.00;;;;;;5022687;28;20068;-76
2022/04/16 07:52:58;;;;;;;17.60;5.78;;;11.00;66.70;;;;;;5074998;28;20025;-74
2022/04/16 07:55:23;;;;;;;20.40;6.40;;;11.10;66.40;;;;;;5069757;28;20036;-75
2022/04/16 07:57:49;;;;;;;7.15;4.00;;;11.20;66.30;;;;;;5033719;28;20043;-74
2022/04/16 08:00:14;;;;;;;73.80;16.42;;;11.30;66.00;;;;;;5077766;28;20048;-74
2022/04/16 08:02:40;;;;;;;12.95;4.00;;;11.30;65.70;;;;;;5057766;28;20036;-75
2022/04/16 08:05:06;;;;;;;20.88;5.10;;;11.40;65.50;;;;;;5005849;28;20052;-74
2022/04/16 08:07:32;;;;;;;14.23;4.20;;;11.40;65.30;;;;;;5032388;28;20067;-74
2022/04/16 08:09:58;;;;;;;10.65;3.35;;;11.50;65.40;;;;;;5051842;28;20037;-74
2022/04/16 08:12:25;;;;;;;5.70;3.28;;;11.60;65.30;;;;;;5022782;28;20056;-76
2022/04/16 08:14:51;;;;;;;5.00;3.05;;;11.60;65.00;;;;;;5050742;28;20029;-74
2022/04/16 08:17:16;;;;;;;6.10;2.83;;;11.60;64.70;;;;;;5062287;28;20122;-74
2022/04/16 08:19:42;;;;;;;6.10;3.00;;;11.70;64.70;;;;;;5058195;28;20040;-74
2022/04/16 08:22:10;;;;;;;4.88;3.53;;;11.70;64.50;;;;;;5041132;28;20029;-75
2022/04/16 08:27:02;;;;;;;4.93;2.63;;;11.80;64.10;;;;;;5018551;28;20539;-75
2022/04/16 08:29:28;;;;;;;5.28;3.13;;;11.80;63.80;;;;;;5017006;28;20067;-76
2022/04/16 08:31:53;;;;;;;3.55;2.55;;;11.90;63.80;;;;;;5053331;28;20493;-75
2022/04/16 08:34:19;;;;;;;4.72;2.95;;;12.00;63.60;;;;;;5055375;28;20041;-75
2022/04/16 08:36:44;;;;;;;6.60;2.80;;;12.10;63.20;;;;;;5059886;28;20040;-76
2022/04/16 08:39:10;;;;;;;7.43;3.30;;;12.20;63.10;;;;;;5027631;28;20064;-76
2022/04/16 08:41:35;;;;;;;4.10;2.78;;;12.20;62.70;;;;;;5067135;28;20079;-76
2022/04/16 08:44:01;;;;;;;4.00;3.00;;;12.20;62.50;;;;;;5047586;28;20045;-75
2022/04/16 08:46:27;;;;;;;3.38;2.40;;;12.20;62.20;;;;;;5031450;28;20033;-75
2022/04/16 08:48:52;;;;;;;3.45;2.10;;;12.30;62.30;;;;;;5047794;28;20041;-75
2022/04/16 08:51:19;;;;;;;2.65;2.17;;;12.40;62.20;;;;;;5015180;28;20041;-75
2022/04/16 08:53:44;;;;;;;3.75;2.55;;;12.60;61.90;;;;;;5046669;28;20092;-74
2022/04/16 08:56:10;;;;;;;5.03;2.40;;;12.70;61.50;;;;;;5048714;28;20203;-75
2022/04/16 08:58:35;;;;;;;2.80;2.13;;;12.80;61.30;;;;;;5032526;28;20040;-74
2022/04/16 09:01:01;;;;;;;9.23;2.65;;;13.00;60.90;;;;;;5051787;28;20025;-75
2022/04/16 09:03:33;;;;;;;6.97;2.33;;;13.30;60.50;;;;;;5045521;28;20036;-75
2022/04/16 09:05:58;;;;;;;2.92;1.92;;;13.50;59.80;;;;;;5029963;28;20064;-74
2022/04/16 09:08:29;;;;;;;5.32;1.92;;;13.70;59.60;;;;;;5062733;28;20041;-76
2022/04/16 09:11:11;;;;;;;9.02;3.13;;;13.90;59.20;;;;;;5022859;28;20037;-76
2022/04/16 09:14:00;;;;;;;9.57;3.30;;;14.10;58.60;;;;;;5059142;28;20148;-74
2022/04/16 09:16:26;;;;;;;2.70;2.30;;;14.30;58.50;;;;;;5028817;28;20071;-75
2022/04/16 09:18:53;;;;;;;4.45;2.00;;;14.40;58.20;;;;;;5028503;28;20045;-75
2022/04/16 09:21:28;;;;;;;2.58;2.00;;;14.60;57.80;;;;;;5067326;28;20087;-76
2022/04/16 09:24:00;;;;;;;3.53;2.20;;;14.70;57.40;;;;;;5039292;28;20552;-75
2022/04/16 09:26:36;;;;;;;1.83;1.35;;;14.90;56.60;;;;;;5049577;28;20029;-75
2022/04/16 09:29:12;;;;;;;4.35;1.38;;;15.00;55.60;;;;;;4990240;28;20052;-75
2022/04/16 09:31:39;;;;;;;1.25;1.10;;;15.10;55.20;;;;;;5039924;28;20107;-75
2022/04/16 09:34:05;;;;;;;1.92;1.40;;;15.20;55.30;;;;;;5045599;28;20573;-75
2022/04/16 09:36:38;;;;;;;1.98;1.20;;;15.30;55.00;;;;;;5053744;28;20069;-76
2022/04/16 09:39:03;;;;;;;;;;;15.50;54.20;;;;;;5010850;28;20036;-75
2022/04/16 09:41:36;;;;;;;2.03;1.15;;;15.60;54.60;;;;;;5050137;28;19931;-76
2022/04/16 09:44:02;;;;;;;1.63;1.25;;;15.80;53.80;;;;;;5031488;28;20044;-75
2022/04/16 09:46:28;;;;;;;3.55;1.25;;;15.90;53.70;;;;;;5038179;28;20028;-75
2022/04/16 09:49:04;;;;;;;2.15;1.10;;;16.00;53.30;;;;;;5049111;28;20575;-76
2022/04/16 09:51:34;;;;;;;1.92;1.00;;;16.20;52.50;;;;;;5064288;28;20048;-75
2022/04/16 09:54:02;;;;;;;3.15;1.25;;;16.30;52.40;;;;;;5050855;28;20059;-75
2022/04/16 09:56:27;;;;;;;1.17;1.00;;;16.60;51.90;;;;;;5059157;28;20129;-75
2022/04/16 09:58:53;;;;;;;2.47;1.27;;;16.60;51.50;;;;;;5022757;28;20132;-75
2022/04/16 10:01:21;;;;;;;2.80;1.00;;;16.80;51.20;;;;;;4998095;28;20978;-75
2022/04/16 10:03:46;;;;;;;4.10;1.63;;;16.90;50.80;;;;;;5021108;28;20053;-76
2022/04/16 10:06:12;;;;;;;1.60;1.00;;;17.10;50.50;;;;;;5039755;28;20067;-77
2022/04/16 10:08:38;;;;;;;3.20;1.58;;;17.30;50.10;;;;;;4996038;28;20119;-76
2022/04/16 10:11:04;;;;;;;2.80;1.27;;;17.40;49.60;;;;;;5023896;28;20033;-75
2022/04/16 10:13:32;;;;;;;1.20;0.75;;;17.50;48.80;;;;;;5046991;28;20436;-75
2022/04/16 10:16:18;;;;;;;2.85;1.25;;;17.60;48.50;;;;;;5045358;28;20044;-76
2022/04/16 10:18:44;;;;;;;2.15;1.00;;;17.70;48.10;;;;;;5051722;28;20033;-75
2022/04/16 10:21:16;;;;;;;12.07;1.92;;;17.90;48.20;;;;;;5020228;28;20108;-76
2022/04/16 10:23:42;;;;;;;5.90;1.45;;;18.10;47.90;;;;;;5035508;28;20029;-77
2022/04/16 10:26:11;;;;;;;4.15;1.27;;;18.20;47.30;;;;;;5044079;28;20041;-76
2022/04/16 10:28:40;;;;;;;5.60;1.20;;;18.30;46.90;;;;;;5039610;28;20157;-76
2022/04/16 10:31:07;;;;;;;3.70;1.25;;;18.30;46.30;;;;;;5059242;28;20029;-76
2022/04/16 10:33:32;;;;;;;2.72;1.10;;;18.30;46.40;;;;;;5031746;28;20064;-76
2022/04/16 10:36:02;;;;;;;4.05;1.10;;;18.30;46.00;;;;;;5036999;28;20049;-76
2022/04/16 10:38:38;;;;;;;1.02;0.80;;;18.40;45.90;;;;;;5046807;28;20144;-76
2022/04/16 10:41:14;;;;;;;1.50;0.93;;;18.40;45.30;;;;;;5027218;28;20088;-76
2022/04/16 10:43:39;;;;;;;3.13;1.60;;;18.50;44.60;;;;;;5006348;28;20063;-76
2022/04/16 10:46:07;;;;;;;1.52;1.02;;;18.70;45.20;;;;;;5039977;28;20029;-76
2022/04/16 10:48:33;;;;;;;1.55;0.70;;;18.80;44.70;;;;;;5008532;28;20053;-76
2022/04/16 10:50:59;;;;;;;2.60;1.10;;;19.00;44.40;;;;;;5059952;28;20275;-77
2022/04/16 10:53:32;;;;;;;1.27;0.93;;;19.00;44.10;;;;;;5024974;28;20572;-76
2022/04/16 10:56:06;;;;;;;0.85;0.77;;;19.10;43.40;;;;;;5018005;28;20642;-76
2022/04/16 10:58:31;;;;;;;1.63;0.90;;;19.20;42.70;;;;;;5062554;28;20039;-76
2022/04/16 11:01:07;;;;;;;1.27;0.95;;;19.30;43.20;;;;;;5052957;28;20085;-76
2022/04/16 11:03:36;;;;;;;1.85;1.20;;;19.40;41.60;;;;;;5047269;28;20075;-76
2022/04/16 11:06:07;;;;;;;1.17;1.00;;;19.60;42.60;;;;;;5048367;28;20025;-75
2022/04/16 11:08:36;;;;;;;1.50;0.80;;;19.70;42.10;;;;;;5026430;28;20029;-76
2022/04/16 11:11:02;;;;;;;2.53;1.80;;;19.70;41.20;;;;;;5009685;28;20056;-75
2022/04/16 11:13:34;;;;;;;2.35;1.08;;;19.80;41.10;;;;;;5029256;28;20446;-75
2022/04/16 11:16:01;;;;;;;2.78;0.77;;;20.00;40.50;;;;;;5032054;28;20429;-76
2022/04/16 11:18:47;;;;;;;1.23;0.60;;;20.00;40.60;;;;;;5045708;28;20025;-76
2022/04/16 11:21:20;;;;;;;1.58;1.00;;;20.10;40.30;;;;;;5044990;28;20086;-76
2022/04/16 11:23:50;;;;;;;2.33;1.23;;;20.10;39.30;;;;;;5011844;28;20038;-76
2022/04/16 11:34:31;;;;;;;0.82;0.60;;;20.20;38.60;;;;;;5035974;28;20154;-76
2022/04/16 11:36:58;;;;;;;0.60;0.60;;;20.40;38.40;;;;;;4995052;28;20514;-76
2022/04/16 11:39:26;;;;;;;2.45;0.80;;;20.50;38.00;;;;;;5016609;28;20052;-76
2022/04/16 11:42:04;;;;;;;1.35;0.88;;;20.50;37.50;;;;;;5029974;28;20036;-76
2022/04/16 11:44:40;;;;;;;2.45;0.80;;;20.50;36.20;;;;;;5045388;28;20048;-76
2022/04/16 11:47:10;;;;;;;1.88;0.93;;;20.50;36.60;;;;;;5049184;28;20040;-75
2022/04/16 11:49:36;;;;;;;1.45;0.80;;;20.70;37.10;;;;;;5004665;28;20044;-75
2022/04/16 11:52:02;;;;;;;1.33;0.52;;;20.80;37.00;;;;;;5029613;28;20033;-75
2022/04/16 11:54:28;;;;;;;3.55;0.85;;;20.90;37.00;;;;;;5022790;28;20655;-75
2022/04/16 11:56:57;;;;;;;1.17;0.60;;;21.10;36.70;;;;;;5041558;28;20036;-75
2022/04/16 11:59:24;;;;;;;1.25;0.70;;;21.20;37.10;;;;;;5061352;28;20036;-74
2022/04/16 12:02:16;;;;;;;0.68;0.55;;;21.40;36.30;;;;;;5015954;28;20041;-74
2022/04/16 12:04:42;;;;;;;2.25;0.68;;;21.50;35.40;;;;;;5030134;28;20057;-74
2022/04/16 12:07:14;;;;;;;1.95;0.30;;;21.60;36.00;;;;;;5016136;28;20040;-75
2022/04/16 12:09:47;;;;;;;0.50;0.50;;;21.60;35.50;;;;;;5054189;28;20033;-74
2022/04/16 12:12:19;;;;;;;1.70;0.80;;;21.70;35.10;;;;;;5026876;28;20037;-75
2022/04/16 12:14:48;;;;;;;0.80;0.70;;;21.90;35.20;;;;;;5021827;28;20063;-76
2022/04/16 12:17:27;;;;;;;0.90;0.70;;;22.00;35.00;;;;;;5015758;28;20478;-74
2022/04/16 12:20:11;;;;;;;1.33;0.68;;;22.10;33.50;;;;;;5061506;28;20179;-74
2022/04/16 12:22:51;;;;;;;4.32;0.90;;;22.20;33.10;;;;;;5016766;28;20479;-75
2022/04/16 12:25:21;;;;;;;1.25;1.08;;;22.30;33.20;;;;;;5018952;28;20052;-75
2022/04/16 12:28:13;;;;;;;1.50;0.60;;;22.30;34.10;;;;;;5032222;28;20528;-74
2022/04/16 12:30:39;;;;;;;2.05;0.80;;;22.50;32.80;;;;;;5040028;28;20029;-74
2022/04/16 12:33:10;;;;;;;0.80;0.73;;;22.60;34.10;;;;;;5053132;28;20032;-75
2022/04/16 12:35:37;;;;;;;3.50;0.70;;;22.60;33.70;;;;;;5033856;28;20116;-75
2022/04/16 12:38:03;;;;;;;2.10;0.70;;;22.60;33.70;;;;;;5026490;28;20051;-74
2022/04/16 12:40:29;;;;;;;1.23;1.10;;;22.60;33.60;;;;;;5038840;28;20025;-74
2022/04/16 12:42:56;;;;;;;1.13;0.80;;;22.60;33.40;;;;;;5060882;28;20025;-74
2022/04/16 12:45:23;;;;;;;1.17;1.08;;;22.50;33.60;;;;;;5016810;28;20072;-75
2022/04/16 12:47:48;;;;;;;0.82;0.70;;;22.30;33.50;;;;;;5021699;28;20061;-74
2022/04/16 12:50:14;;;;;;;2.58;0.75;;;22.40;33.70;;;;;;5020077;28;20068;-75
2022/04/16 12:52:40;;;;;;;0.90;0.70;;;22.50;33.70;;;;;;5062238;28;20493;-75
2022/04/16 12:55:07;;;;;;;3.40;0.90;;;22.60;33.80;;;;;;5023590;28;20037;-75
2022/04/16 12:57:33;;;;;;;3.58;1.30;;;22.80;33.70;;;;;;5026558;28;20071;-77
2022/04/16 12:59:58;;;;;;;7.93;1.30;;;22.80;33.20;;;;;;5020291;28;20108;-74
2022/04/16 13:02:24;;;;;;;2.17;1.00;;;22.70;33.00;;;;;;5058182;28;20028;-75
2022/04/16 13:04:51;;;;;;;1.00;0.90;;;22.80;32.90;;;;;;5007379;28;20035;-74
2022/04/16 13:07:16;;;;;;;1.67;1.10;;;22.80;32.50;;;;;;5008748;28;20091;-75
2022/04/16 13:09:42;;;;;;;1.67;1.40;;;22.80;32.30;;;;;;5028955;28;20054;-74